INDIA METEOROLOGICAL DEPARTMENT, R.M.C. NEW DELHI
Dated:19 - 4 - 2014
METARS


Agartala   
VEAT 190900Z 13005KT 4000 BR SCT018 FEW030CB SCT100 25/22 Q1006 NOSIG=
Ahmedabad  
VAAH 190910Z 26006KT 5000 FU SCT020 38/21 Q1009 NOSIG=
Amritsar   
VIAR 190900Z VRB03KT 6000 FEW040 28/17 Q1012=
Aurangabad 
VAAU 190900Z 09003KT 6000 SCT020 SCT025 36/18 Q1011=
Bangalore  
VOBL 190900Z 06008KT 010V120 9999 SCT015 SCT020 37/15 Q1013 NOSIG=
Baroda     
VABO 190900Z 00000KT 6000 FEW025 35/21 Q1009=
Bhopal     
VABP 190900Z 02004KT 6000 FEW030 34/17 Q1012 NOSIG=
Bhubaneswar
VEBS 190900Z 08004KT 4000 HZ FEW020 40/21 Q1006 NOSIG=
Chennai    
VOMM 190910Z 12011KT 8000 FEW020 34/21 Q1007 NOSIG=
Coimbatore 
VOCB 190900Z 23002KT 8000 SCT015 36/19 Q1009 NOSIG=
Colombo    
VCBI 190910Z 25007KT 9999 BKN016 32/25 Q1008 NOSIG=
Delhi      
VIDP 190900Z 28005KT 3000 HZ FEW040 SCT100 32/14 Q1012 NOSIG=
Dehradun   
VIDN 190900Z 17007KT 6000 TS FEW CB035 SCT040 29/12 Q1013 =
Gauhati    
VEGT 190900Z 32006KT 5000 HZ NSC 36/19 Q1006 NOSIG=
Gaya       
VEGY 190900Z 32002KT 6000 BKN250 38/15 Q1008 NOSIG=
Gaggal     
VIGG 190900Z 23002KT 6000 SCT030 SCT035 23/13 Q1016=
Fursatganj
SPECI VIRB 190900Z 36012KT 3000 -TSRA SCT015 FEW030CB BKN090 26/16 Q1010=
Hyderabad  
VOHS 190910Z 08007KT 030V140 6000 FEW020 SCT025 34/11 Q1012 NOSIG=
Imphal     
VEIM 190900Z 27009KT 5000 HZ FEW020 34/13 Q1010 NOSIG=
Indore     
VAID 190900Z 29012KT 5000 HZ FEW020 SCT020 FEWCB030 35/14 Q1012=
Jabalpur   
VAJB 190900Z 32010G20KT 5000 -TS BKN025 FEW035CB BKN100 30/17 Q1012=
Jaipur     
VIJP 190830Z 19005KT 4000 HZ SCT035 29/14 Q1013 NOSIG=
Khajuraho  
VAKJ 190900Z 32008KT 5000 DU SCT100 30/17 Q1011=
Kochi      
VOCI 190900Z 27012KT 7000 FEW015 SCT020 34/27 Q1007 NOSIG=
Kolkata    
VECC 190920Z 31004KT 3600 HZ FEW020 SCT100 38/24 Q1006 NOSIG=
Kozhikode  
VOCL 190900Z 29008KT 8000 FEW015 SCT018 FEW025 32/24 Q1008 NOSIG =
Lucknow    
VILK 190830Z 03006KT 4000 DU SCT015 SCT025 FEW030CB OVC090 25/18 Q1011 TEMPO 1000 DS TSRA=
Madurai    
VOMD 190900Z 04002KT 5000 HZ FEW020 40/20 Q1007 =
Mohanbari  
VEMN 190900Z 00000KT 5000 HZ FEW100 35/18 Q1007 NOSIG(.)=
Mumbai     
VABB 190840Z 28012KT 4000 HZ FEW020 30/21 Q1010 NOSIG=
Nagpur     
VANP 190910Z 25005KT 6000 FEW025 SCT100 41/16 Q1008 NOSIG=
Patna      
VEPT 190850Z 02005KT 6000 FEW250 39/14 Q1007 NOSIG=
Raipur     
VARP 190900Z 20008KT 7000 FEW025 37/18 Q1009 NOSIG=
Safdarjung
VIDD 190900Z 00000KT 3500 HZ FEW040 SCT100 32/21 Q1011=
Ranchi     
VERC 190900Z 20002KT 6000 FEW020 36/13 Q1011 NOSIG=
Trichy     
VOTR 190910Z 07005KT 6000 FEW016 40/19 Q1007 NOSIG=
Trivandrum 
VOTV 190910Z 27010KT 6000 FEW015 FEW025CB 33/27 Q1007 NOSIG=
Udaipur    
VAUD 190900Z 06006KT 6000 SCT030 31/15 Q1013=
Varanasi   
VIBN 190830Z 32005KT 6000 FEW200 35/16 Q1009=
Vizag      
VOVZ 190900Z 23006KT 4000 HZ FEW018 SCT090 28/26 Q1007 NOSIG =
Male       
VRMM 190900Z 30009KT 9999 FEW018TCU 31/25 Q1010 NOSIG=
Gan        
VRMG 190900Z 29009KT 9999 SCT018TCU 31/27 Q1010=
Kathmandu   
VNKT 190920Z 26010KT 9999 SCT025 29/05 Q1015 NOSIG=
Dhaka      
VGHS 190850Z 30004KT 5000 HZ FEW015 SCT120 37/18 Q1005 NOSIG=
Colombo     
VCBI 190910Z 25007KT 9999 BKN016 32/25 Q1008 NOSIG=
Karachi     
OPKC 190855Z 19012KT 6000 FEW020 33/21 Q1010 NOSIG=
Lahore      
OPLA 190855Z 00000KT 7000 FEW040 26/17 Q1014 A29.95 NOSIG=
Leh        
VILH 190830Z 27015G25KT 6000 SOCC SCT060 SCT090 12/M10 Q1015 NOSIG=
Thoise     
VITX 190830Z 18010KT 6000 SCT060 BKN120 11/M09 Q1017 NOSIG=
Sri Nagar  
VISR 190830Z 31012KT 5000 -RA SCT010 SCT015 FEW025TCU BKN080 08/08 Q1020 TEMPO 29015G25KT 3000M TSRA=
Jammu      
VIJU 190830Z 14005KT 9999 FEW025 SCT100 26/14 Q1013 NOSIG=
Jodhpur    
VIJO 190830Z 09005KT 8000 SKC 32/14 Q1012 NOSIG=
Bhuj-Rudra 
VABJ 190830Z 24005KT 6000 FEW025 35/19 Q1010 NOSIG=
Gorakhpur  
VEGK 190830Z 28007KT 6000 FEW030 26/13 Q1008 TEMPO 30015G25KT 4000 DRW=
Allahabad  
VIAL 190830Z 33013KT 6000 FEW030 SCT100 BKN250 33/16 Q1011 NOSIG=
Agra       
VIAG 190830Z VRB02KT 6000 FEW025 SCT250 30/15 Q1012 NOSIG=
Siliguri   
VEBD 190830Z 15003KT 6000 FEW030 FEW040TCU 35/19 Q1007 NOSIG=
Gwalior    
VIGR 190900Z 09002KT 5000 HZ FEW100 31/20 Q1011=
Pune       
VAPO 190830Z 24004KT 6000 FEW040 FEW040CB 39/06 Q1012 TEMPO TS=
Chandigarh 
VICG 190830Z 32007KT 6000 SCT030 29/13 Q1013 NOSIG=
Jamnagar   
VAJM 190830Z 29010KT 6000 SKC 32/23 Q1011 NOSIG=